createdAt,value
2017-12-17T00:00:32.226Z,6.40
2017-12-17T00:03:00.482Z,5.90
2017-12-17T00:05:28.756Z,6.43
2017-12-17T00:07:57.058Z,5.40
2017-12-17T00:10:25.352Z,5.60
2017-12-17T00:12:53.643Z,5.17
2017-12-17T00:15:21.882Z,6.55
2017-12-17T00:17:50.183Z,6.00
2017-12-17T00:20:18.431Z,5.23
2017-12-17T00:22:46.712Z,4.30
2017-12-17T00:25:14.968Z,5.70
2017-12-17T00:27:43.263Z,5.33
2017-12-17T00:30:11.527Z,5.65
2017-12-17T00:32:39.837Z,5.93
2017-12-17T00:35:08.089Z,5.33
2017-12-17T00:37:36.367Z,6.27
2017-12-17T00:40:05.391Z,5.47
2017-12-17T00:42:33.690Z,5.90
2017-12-17T00:45:01.948Z,6.07
2017-12-17T00:47:30.247Z,5.20
2017-12-17T00:49:58.488Z,6.00
2017-12-17T00:52:26.758Z,5.40
2017-12-17T00:54:55.044Z,5.40
2017-12-17T00:57:23.315Z,5.87
2017-12-17T00:59:51.694Z,5.30
2017-12-17T01:02:19.916Z,5.07
2017-12-17T01:04:48.223Z,5.70
2017-12-17T01:07:16.471Z,5.57
2017-12-17T01:09:44.774Z,5.85
2017-12-17T01:12:13.019Z,5.70
2017-12-17T01:14:41.298Z,4.97
2017-12-17T01:17:09.541Z,5.37
2017-12-17T01:19:37.819Z,5.00
2017-12-17T01:22:06.095Z,4.63
2017-12-17T01:24:34.356Z,4.80
2017-12-17T01:27:02.628Z,5.20
2017-12-17T01:29:30.884Z,4.97
2017-12-17T01:31:59.160Z,5.23
2017-12-17T01:34:27.416Z,5.60
2017-12-17T01:36:55.730Z,5.60
2017-12-17T01:39:23.956Z,5.10
2017-12-17T01:41:53.094Z,5.03
2017-12-17T01:44:21.358Z,6.07
2017-12-17T01:46:49.654Z,5.30
2017-12-17T01:49:17.935Z,5.97
2017-12-17T01:51:46.206Z,5.50
2017-12-17T01:54:14.471Z,6.10
2017-12-17T01:56:42.741Z,6.10
2017-12-17T01:59:11.020Z,5.90
2017-12-17T02:01:39.275Z,6.00
2017-12-17T02:04:07.574Z,6.50
2017-12-17T02:06:35.821Z,5.93
2017-12-17T02:09:04.840Z,6.40
2017-12-17T02:11:33.096Z,5.90
2017-12-17T02:14:01.574Z,6.30
2017-12-17T02:16:29.826Z,6.57
2017-12-17T02:18:58.166Z,7.13
2017-12-17T02:21:26.427Z,6.87
2017-12-17T02:23:54.674Z,7.40
2017-12-17T02:26:22.980Z,6.47
2017-12-17T02:28:51.236Z,6.83
2017-12-17T02:31:19.523Z,7.47
2017-12-17T02:33:47.774Z,7.10
2017-12-17T02:36:16.046Z,6.75
2017-12-17T02:38:44.304Z,7.50
2017-12-17T02:41:12.653Z,6.20
2017-12-17T02:43:40.916Z,7.00
2017-12-17T02:46:09.188Z,7.65
2017-12-17T02:48:37.467Z,6.53
2017-12-17T02:51:05.731Z,7.10
2017-12-17T02:53:34.036Z,6.30
2017-12-17T02:56:02.275Z,6.20
2017-12-17T02:58:30.573Z,6.27
2017-12-17T03:00:58.851Z,6.90
2017-12-17T03:03:27.382Z,7.40
2017-12-17T03:05:55.667Z,6.70
2017-12-17T03:08:23.933Z,6.28
2017-12-17T03:10:52.207Z,6.50
2017-12-17T03:13:20.451Z,6.47
2017-12-17T03:15:48.751Z,6.40
2017-12-17T03:18:17.120Z,6.33
2017-12-17T03:20:45.502Z,6.70
2017-12-17T03:23:13.714Z,6.53
2017-12-17T03:25:42.195Z,5.70
2017-12-17T03:28:10.462Z,6.20
2017-12-17T03:30:38.764Z,5.87
2017-12-17T03:33:07.032Z,5.60
2017-12-17T03:35:35.287Z,5.75
2017-12-17T03:38:04.299Z,5.22
2017-12-17T03:40:32.554Z,5.23
2017-12-17T03:43:00.836Z,5.13
2017-12-17T03:45:29.107Z,5.47
2017-12-17T03:47:57.399Z,4.60
2017-12-17T03:50:25.703Z,5.00
2017-12-17T03:52:53.981Z,4.20
2017-12-17T03:55:22.262Z,5.10
2017-12-17T03:57:50.503Z,4.20
2017-12-17T04:00:18.795Z,4.82
2017-12-17T04:02:47.075Z,3.90
2017-12-17T04:05:15.351Z,3.50
2017-12-17T04:07:44.261Z,3.50
2017-12-17T04:10:12.534Z,3.70
2017-12-17T04:12:40.788Z,3.60
2017-12-17T04:15:09.067Z,3.33
2017-12-17T04:17:37.323Z,3.30
2017-12-17T04:20:05.602Z,3.33
2017-12-17T04:22:33.862Z,3.10
2017-12-17T04:25:02.139Z,3.30
2017-12-17T04:27:30.427Z,2.97
2017-12-17T04:29:58.691Z,3.07
2017-12-17T04:32:27.055Z,3.20
2017-12-17T04:34:55.315Z,3.28
2017-12-17T04:37:23.588Z,2.93
2017-12-17T04:39:51.849Z,2.83
2017-12-17T04:42:20.136Z,2.67
2017-12-17T04:44:48.393Z,3.23
2017-12-17T04:47:16.631Z,3.00
2017-12-17T04:49:44.907Z,2.47
2017-12-17T04:52:13.220Z,2.40
2017-12-17T04:54:41.455Z,2.60
2017-12-17T04:57:09.768Z,2.83
2017-12-17T04:59:38.041Z,2.50
2017-12-17T05:02:06.315Z,2.17
2017-12-17T05:04:34.607Z,2.90
2017-12-17T05:07:02.877Z,3.80
2017-12-17T05:09:31.203Z,2.50
2017-12-17T05:12:00.483Z,2.50
2017-12-17T05:14:28.740Z,1.83
2017-12-17T05:16:57.011Z,2.03
2017-12-17T05:19:25.274Z,2.67
2017-12-17T05:21:53.551Z,1.90
2017-12-17T05:24:21.807Z,1.98
2017-12-17T05:26:50.096Z,2.00
2017-12-17T05:29:18.376Z,2.15
2017-12-17T05:31:46.634Z,1.70
2017-12-17T05:34:14.863Z,2.00
2017-12-17T05:36:43.153Z,1.70
2017-12-17T05:39:11.400Z,1.93
2017-12-17T05:41:39.683Z,1.77
2017-12-17T05:44:07.969Z,1.90
2017-12-17T05:46:36.219Z,1.97
2017-12-17T05:49:04.483Z,1.70
2017-12-17T05:51:32.734Z,1.63
2017-12-17T05:54:01.035Z,1.73
2017-12-17T05:56:29.287Z,2.00
2017-12-17T05:58:57.563Z,2.20
2017-12-17T06:01:25.828Z,2.27
2017-12-17T06:03:54.084Z,1.90
2017-12-17T06:06:22.360Z,1.90
2017-12-17T06:08:50.590Z,2.20
2017-12-17T06:11:18.867Z,2.50
2017-12-17T06:13:47.119Z,2.10
2017-12-17T06:16:15.383Z,2.78
2017-12-17T06:18:43.631Z,3.30
2017-12-17T06:21:11.909Z,3.50
2017-12-17T06:23:40.150Z,4.00
2017-12-17T06:26:08.435Z,3.80
2017-12-17T06:28:36.695Z,4.20
2017-12-17T06:31:05.246Z,3.97
2017-12-17T06:33:33.502Z,5.03
2017-12-17T06:36:01.772Z,5.47
2017-12-17T06:38:30.039Z,6.40
2017-12-17T06:40:58.327Z,5.75
2017-12-17T06:43:26.603Z,5.60
2017-12-17T06:45:54.865Z,4.93
2017-12-17T06:48:23.214Z,4.62
2017-12-17T06:50:51.471Z,5.03
2017-12-17T06:53:19.747Z,5.43
2017-12-17T06:55:48.019Z,5.40
2017-12-17T06:58:16.503Z,5.78
2017-12-17T07:00:44.757Z,5.93
2017-12-17T07:03:13.007Z,5.40
2017-12-17T07:05:41.283Z,5.10
2017-12-17T07:08:09.875Z,5.33
2017-12-17T07:10:38.142Z,5.67
2017-12-17T07:13:06.390Z,6.00
2017-12-17T07:15:34.671Z,6.12
2017-12-17T07:18:02.933Z,5.67
2017-12-17T07:20:31.340Z,6.22
2017-12-17T07:22:59.615Z,6.10
2017-12-17T07:25:28.064Z,6.23
2017-12-17T07:27:56.347Z,7.27
2017-12-17T07:30:24.622Z,6.80
2017-12-17T07:32:52.903Z,7.47
2017-12-17T07:35:21.170Z,7.20
2017-12-17T07:37:49.450Z,7.10
2017-12-17T07:40:17.702Z,7.20
2017-12-17T07:42:45.998Z,7.10
2017-12-17T07:45:14.260Z,7.13
2017-12-17T07:47:42.551Z,7.07
2017-12-17T07:50:10.830Z,7.50
2017-12-17T07:52:39.598Z,7.37
2017-12-17T07:55:07.888Z,7.03
2017-12-17T07:57:36.165Z,7.70
2017-12-17T08:00:04.459Z,7.00
2017-12-17T08:02:32.724Z,7.33
2017-12-17T08:05:00.995Z,7.13
2017-12-17T08:07:29.274Z,7.20
2017-12-17T08:09:57.547Z,7.90
2017-12-17T08:12:25.841Z,7.23
2017-12-17T08:14:54.115Z,6.60
2017-12-17T08:17:22.392Z,6.32
2017-12-17T08:19:50.650Z,6.50
2017-12-17T08:22:18.935Z,6.05
2017-12-17T08:24:47.183Z,5.90
2017-12-17T08:27:15.495Z,6.10
2017-12-17T08:29:43.748Z,5.55
2017-12-17T08:32:12.094Z,5.45
2017-12-17T08:34:40.504Z,6.03
2017-12-17T08:37:08.755Z,6.15
2017-12-17T08:39:37.020Z,6.00
2017-12-17T08:42:05.411Z,5.68
2017-12-17T08:44:33.679Z,6.50
2017-12-17T08:47:01.915Z,5.90
2017-12-17T08:49:30.201Z,5.70
2017-12-17T08:51:58.462Z,6.40
2017-12-17T08:54:26.755Z,6.60
2017-12-17T08:56:55.011Z,7.10
2017-12-17T08:59:23.298Z,6.20
2017-12-17T09:01:51.584Z,6.23
2017-12-17T09:04:19.871Z,6.50
2017-12-17T09:06:48.171Z,6.50
2017-12-17T09:09:16.456Z,7.47
2017-12-17T09:11:44.757Z,6.40
2017-12-17T09:14:13.034Z,7.03
2017-12-17T09:16:41.290Z,6.63
2017-12-17T09:19:09.551Z,6.90
2017-12-17T09:21:37.837Z,7.20
2017-12-17T09:24:06.101Z,7.35
2017-12-17T09:26:34.399Z,7.40
2017-12-17T09:29:02.652Z,6.63
2017-12-17T09:31:31.216Z,7.10
2017-12-17T09:33:59.479Z,7.83
2017-12-17T09:36:27.775Z,7.50
2017-12-17T09:38:56.078Z,6.78
2017-12-17T09:41:24.351Z,7.73
2017-12-17T09:43:52.638Z,8.23
2017-12-17T09:46:20.914Z,8.25
2017-12-17T09:48:49.175Z,8.13
2017-12-17T09:51:17.464Z,8.10
2017-12-17T09:53:45.744Z,7.30
2017-12-17T09:56:14.002Z,8.53
2017-12-17T09:58:42.291Z,8.50
2017-12-17T10:01:10.547Z,9.05
2017-12-17T10:03:38.825Z,7.20
2017-12-17T10:06:07.087Z,8.30
2017-12-17T10:08:35.385Z,8.10
2017-12-17T10:11:03.711Z,8.70
2017-12-17T10:13:31.944Z,9.10
2017-12-17T10:16:00.237Z,8.20
2017-12-17T10:18:28.501Z,8.63
2017-12-17T10:20:56.759Z,9.17
2017-12-17T10:23:25.047Z,9.50
2017-12-17T10:25:53.315Z,8.00
2017-12-17T10:28:21.605Z,9.40
2017-12-17T10:30:49.860Z,8.38
2017-12-17T10:33:18.126Z,8.43
2017-12-17T10:35:46.422Z,9.33
2017-12-17T10:38:14.679Z,9.37
2017-12-17T10:40:42.968Z,8.27
2017-12-17T10:43:11.231Z,9.33
2017-12-17T10:45:39.547Z,8.77
2017-12-17T10:48:07.802Z,9.30
2017-12-17T10:50:36.100Z,8.80
2017-12-17T10:53:04.803Z,8.93
2017-12-17T10:55:33.059Z,9.07
2017-12-17T10:58:01.347Z,9.50
2017-12-17T11:00:29.608Z,8.87
2017-12-17T11:02:57.919Z,8.80
2017-12-17T11:05:26.200Z,10.30
2017-12-17T11:07:54.483Z,9.77
2017-12-17T11:10:22.733Z,8.70
2017-12-17T11:12:51.027Z,10.25
2017-12-17T11:15:19.282Z,9.13
2017-12-17T11:17:47.563Z,9.17
2017-12-17T11:20:15.818Z,8.85
2017-12-17T11:22:44.114Z,8.87
2017-12-17T11:25:12.394Z,9.17
2017-12-17T11:27:40.652Z,8.43
2017-12-17T11:30:09.014Z,9.80
2017-12-17T11:32:37.393Z,8.50
2017-12-17T11:35:05.816Z,9.07
2017-12-17T11:37:34.028Z,9.27
2017-12-17T11:40:02.287Z,8.20
2017-12-17T11:42:30.567Z,8.83
2017-12-17T11:44:58.876Z,9.20
2017-12-17T11:47:27.119Z,9.30
2017-12-17T11:49:55.418Z,9.53
2017-12-17T11:52:23.774Z,8.10
2017-12-17T11:54:52.187Z,9.00
2017-12-17T11:57:20.471Z,9.40
2017-12-17T11:59:48.732Z,8.30
2017-12-17T12:02:17.015Z,9.20
2017-12-17T12:04:45.271Z,8.50
2017-12-17T12:07:13.590Z,9.77
2017-12-17T12:09:41.859Z,9.75
2017-12-17T12:12:10.155Z,9.10
2017-12-17T12:14:38.848Z,9.93
2017-12-17T12:17:07.105Z,8.47
2017-12-17T12:19:35.457Z,9.20
2017-12-17T12:22:04.619Z,8.68
2017-12-17T12:24:32.913Z,8.80
2017-12-17T12:27:01.158Z,8.07
2017-12-17T12:29:29.447Z,8.17
2017-12-17T12:31:57.754Z,8.10
2017-12-17T12:34:26.004Z,8.37
2017-12-17T12:36:54.280Z,9.07
2017-12-17T12:39:22.574Z,8.20
2017-12-17T12:41:50.850Z,9.67
2017-12-17T12:44:19.095Z,7.80
2017-12-17T12:46:47.372Z,8.60
2017-12-17T12:49:15.668Z,8.25
2017-12-17T12:51:43.962Z,7.70
2017-12-17T12:54:12.208Z,9.13
2017-12-17T12:56:40.490Z,8.07
2017-12-17T12:59:08.748Z,7.60
2017-12-17T13:01:37.030Z,8.47
2017-12-17T13:04:05.594Z,8.93
2017-12-17T13:06:33.874Z,8.20
2017-12-17T13:09:02.173Z,8.00
2017-12-17T13:11:30.452Z,7.47
2017-12-17T13:13:58.728Z,8.60
2017-12-17T13:16:26.978Z,8.33
2017-12-17T13:18:55.286Z,8.17
2017-12-17T13:21:23.534Z,7.87
2017-12-17T13:23:51.811Z,7.93
2017-12-17T13:26:20.123Z,8.65
2017-12-17T13:28:48.419Z,8.67
2017-12-17T13:31:16.683Z,8.57
2017-12-17T13:33:44.965Z,8.00
2017-12-17T13:36:13.272Z,8.33
2017-12-17T13:38:41.560Z,7.90
2017-12-17T13:41:09.825Z,7.82
2017-12-17T13:43:38.106Z,8.90
2017-12-17T13:46:06.364Z,8.52
2017-12-17T13:48:34.718Z,9.03
2017-12-17T13:51:04.034Z,8.78
2017-12-17T13:53:32.299Z,9.10
2017-12-17T13:56:00.591Z,8.85
2017-12-17T13:58:28.855Z,8.47
2017-12-17T14:00:57.143Z,7.93
2017-12-17T14:03:25.816Z,9.10
2017-12-17T14:05:54.090Z,8.33
2017-12-17T14:08:22.387Z,8.30
2017-12-17T14:10:50.677Z,7.57
2017-12-17T14:13:19.012Z,8.13
2017-12-17T14:15:47.243Z,9.13
2017-12-17T14:18:15.532Z,8.97
2017-12-17T14:20:43.787Z,8.00
2017-12-17T14:23:12.060Z,8.23
2017-12-17T14:25:40.311Z,6.87
2017-12-17T14:28:08.605Z,8.30
2017-12-17T14:30:36.882Z,7.53
2017-12-17T14:33:05.175Z,8.40
2017-12-17T14:35:33.438Z,8.23
2017-12-17T14:38:01.717Z,8.40
2017-12-17T14:40:30.015Z,7.97
2017-12-17T14:42:58.318Z,8.90
2017-12-17T14:45:26.571Z,8.30
2017-12-17T14:47:55.713Z,8.77
2017-12-17T14:50:24.020Z,9.30
2017-12-17T14:52:52.285Z,8.07
2017-12-17T14:55:20.549Z,9.55
2017-12-17T14:57:49.081Z,8.83
2017-12-17T15:00:17.349Z,10.27
2017-12-17T15:02:45.603Z,8.73
2017-12-17T15:05:13.883Z,9.45
2017-12-17T15:07:42.168Z,10.40
2017-12-17T15:10:10.485Z,9.90
2017-12-17T15:12:38.742Z,9.60
2017-12-17T15:15:07.063Z,8.50
2017-12-17T15:17:35.346Z,9.17
2017-12-17T15:20:03.795Z,9.60
2017-12-17T15:22:34.994Z,9.40
2017-12-17T15:25:03.299Z,10.57
2017-12-17T15:27:31.598Z,10.00
2017-12-17T15:29:59.845Z,9.63
2017-12-17T15:32:28.129Z,8.80
2017-12-17T15:34:56.383Z,7.90
2017-12-17T15:37:24.677Z,9.37
2017-12-17T15:39:53.878Z,8.57
2017-12-17T15:42:22.155Z,9.27
2017-12-17T15:44:50.442Z,10.23
2017-12-17T15:47:18.754Z,8.40
2017-12-17T15:49:47.051Z,9.80
2017-12-17T15:52:15.321Z,9.60
2017-12-17T15:54:43.602Z,8.82
2017-12-17T15:57:11.876Z,10.02
2017-12-17T15:59:40.168Z,10.85
2017-12-17T16:02:08.426Z,9.20
2017-12-17T16:04:36.832Z,8.67
2017-12-17T16:07:05.084Z,9.60
2017-12-17T16:09:33.368Z,9.40
2017-12-17T16:12:01.638Z,9.13
2017-12-17T16:14:29.948Z,10.10
2017-12-17T16:16:58.232Z,8.40
2017-12-17T16:19:26.543Z,11.30
2017-12-17T16:21:54.844Z,11.52
2017-12-17T16:24:23.195Z,9.82
2017-12-17T16:26:51.484Z,9.83
2017-12-17T16:29:19.770Z,9.68
2017-12-17T16:31:48.055Z,10.73
2017-12-17T16:34:16.323Z,9.73
2017-12-17T16:36:45.524Z,10.97
2017-12-17T16:39:13.998Z,11.85
2017-12-17T16:41:42.280Z,9.37
2017-12-17T16:44:10.555Z,10.70
2017-12-17T16:46:38.839Z,9.80
2017-12-17T16:49:07.109Z,9.70
2017-12-17T16:51:35.646Z,10.97
2017-12-17T16:54:03.929Z,8.07
2017-12-17T16:56:32.175Z,9.30
2017-12-17T16:59:00.463Z,11.07
2017-12-17T17:01:28.708Z,9.93
2017-12-17T17:03:57.005Z,10.30
2017-12-17T17:06:25.272Z,10.87
2017-12-17T17:08:53.551Z,9.60
2017-12-17T17:11:21.821Z,9.97
2017-12-17T17:13:50.075Z,9.33
2017-12-17T17:16:18.327Z,8.67
2017-12-17T17:18:46.613Z,9.80
2017-12-17T17:21:14.868Z,9.80
2017-12-17T17:23:43.137Z,9.20
2017-12-17T17:26:11.420Z,9.40
2017-12-17T17:28:39.691Z,8.60
2017-12-17T17:31:07.971Z,8.67
2017-12-17T17:33:36.212Z,8.70
2017-12-17T17:36:04.534Z,10.30
2017-12-17T17:38:32.808Z,13.83
2017-12-17T17:41:01.903Z,9.90
2017-12-17T17:43:30.224Z,10.47
2017-12-17T17:45:58.486Z,11.20
2017-12-17T17:48:26.741Z,10.07
2017-12-17T17:50:55.031Z,11.50
2017-12-17T17:53:23.300Z,10.30
2017-12-17T17:55:51.603Z,10.20
2017-12-17T17:58:19.879Z,10.97
2017-12-17T18:00:48.166Z,10.20
2017-12-17T18:03:16.524Z,10.53
2017-12-17T18:05:44.807Z,11.83
2017-12-17T18:08:13.113Z,12.13
2017-12-17T18:10:41.347Z,11.60
2017-12-17T18:13:09.655Z,10.90
2017-12-17T18:15:37.915Z,10.30
2017-12-17T18:18:06.228Z,10.53
2017-12-17T18:20:34.475Z,10.63
2017-12-17T18:23:02.766Z,10.97
2017-12-17T18:25:31.064Z,10.97
2017-12-17T18:27:59.348Z,9.13
2017-12-17T18:30:27.629Z,10.50
2017-12-17T18:32:55.870Z,10.30
2017-12-17T18:35:24.170Z,10.33
2017-12-17T18:37:52.433Z,9.80
2017-12-17T18:40:20.701Z,9.00
2017-12-17T18:42:48.994Z,9.30
2017-12-17T18:45:17.282Z,10.10
2017-12-17T18:47:45.502Z,8.93
2017-12-17T18:50:13.776Z,9.17
2017-12-17T18:52:42.053Z,9.80
2017-12-17T18:55:10.328Z,9.10
2017-12-17T18:57:38.608Z,10.43
2017-12-17T19:00:06.854Z,10.87
2017-12-17T19:02:35.176Z,10.80
2017-12-17T19:05:03.420Z,10.57
2017-12-17T19:07:31.702Z,11.10
2017-12-17T19:09:59.977Z,10.20
2017-12-17T19:12:28.931Z,9.83
2017-12-17T19:14:58.019Z,10.30
2017-12-17T19:17:26.291Z,10.80
2017-12-17T19:19:54.548Z,10.97
2017-12-17T19:22:22.898Z,10.93
2017-12-17T19:24:51.216Z,10.10
2017-12-17T19:27:19.467Z,11.07
2017-12-17T19:29:47.754Z,11.10
2017-12-17T19:32:16.105Z,10.37
2017-12-17T19:34:44.368Z,10.87
2017-12-17T19:37:12.620Z,10.37
2017-12-17T19:39:40.941Z,10.20
2017-12-17T19:42:09.237Z,10.83
2017-12-17T19:44:37.508Z,8.90
2017-12-17T19:47:05.763Z,10.20
2017-12-17T19:49:34.056Z,9.67
2017-12-17T19:52:02.334Z,10.03
2017-12-17T19:54:30.793Z,10.17
2017-12-17T19:56:59.194Z,11.23
2017-12-17T19:59:27.667Z,10.37
2017-12-17T20:01:56.205Z,9.80
2017-12-17T20:04:25.547Z,9.10
2017-12-17T20:06:54.093Z,10.10
2017-12-17T20:09:22.678Z,10.33
2017-12-17T20:11:51.228Z,8.43
2017-12-17T20:14:19.729Z,9.33
2017-12-17T20:16:48.262Z,9.70
2017-12-17T20:19:16.820Z,9.37
2017-12-17T20:21:45.362Z,9.70
2017-12-17T20:24:13.910Z,9.37
2017-12-17T20:26:42.520Z,9.27
2017-12-17T20:29:13.705Z,9.80
2017-12-17T20:31:39.716Z,9.87
2017-12-17T20:34:08.280Z,9.27
2017-12-17T20:36:36.861Z,9.20
2017-12-17T20:39:05.399Z,8.87
2017-12-17T20:41:33.916Z,9.40
2017-12-17T20:44:02.492Z,9.63
2017-12-17T20:46:31.012Z,9.30
2017-12-17T20:48:59.275Z,9.60
2017-12-17T20:51:27.585Z,10.00
2017-12-17T20:53:55.851Z,9.37
2017-12-17T20:56:24.161Z,8.60
2017-12-17T20:58:52.417Z,9.80
2017-12-17T21:01:20.720Z,10.23
2017-12-17T21:03:48.997Z,10.73
2017-12-17T21:06:17.296Z,9.87
2017-12-17T21:08:45.539Z,9.80
2017-12-17T21:11:13.851Z,10.30
2017-12-17T21:13:42.150Z,10.20
2017-12-17T21:16:10.458Z,9.20
2017-12-17T21:18:38.733Z,10.57
2017-12-17T21:21:07.011Z,10.77
2017-12-17T21:23:35.296Z,9.83
2017-12-17T21:26:03.565Z,11.20
2017-12-17T21:28:31.851Z,10.60
2017-12-17T21:31:00.117Z,10.30
2017-12-17T21:33:28.419Z,9.00
2017-12-17T21:35:56.673Z,9.57
2017-12-17T21:38:24.959Z,10.50
2017-12-17T21:40:53.269Z,10.30
2017-12-17T21:43:21.515Z,10.40
2017-12-17T21:45:49.771Z,11.27
2017-12-17T21:48:18.058Z,10.03
2017-12-17T21:50:46.335Z,10.87
2017-12-17T21:53:14.621Z,10.67
2017-12-17T21:55:42.881Z,10.90
2017-12-17T21:58:11.169Z,10.53
2017-12-17T22:00:39.440Z,10.47
2017-12-17T22:03:07.891Z,10.53
2017-12-17T22:05:36.182Z,10.65
2017-12-17T22:08:05.120Z,9.77
2017-12-17T22:10:33.432Z,8.50
2017-12-17T22:13:01.701Z,10.48
2017-12-17T22:15:30.027Z,10.23
2017-12-17T22:17:58.281Z,10.50
2017-12-17T22:20:26.576Z,9.60
2017-12-17T22:22:54.845Z,9.97
2017-12-17T22:25:23.156Z,9.53
2017-12-17T22:27:51.464Z,8.50
2017-12-17T22:30:19.752Z,9.68
2017-12-17T22:32:48.048Z,10.17
2017-12-17T22:35:16.548Z,9.23
2017-12-17T22:37:44.804Z,8.37
2017-12-17T22:40:13.073Z,8.30
2017-12-17T22:42:41.348Z,7.82
2017-12-17T22:45:09.608Z,7.15
2017-12-17T22:47:37.909Z,5.87
2017-12-17T22:50:06.176Z,6.20
2017-12-17T22:52:34.460Z,5.63
2017-12-17T22:55:02.711Z,5.00
2017-12-17T22:57:31.109Z,5.47
2017-12-17T22:59:59.328Z,5.83
2017-12-17T23:02:27.607Z,6.07
2017-12-17T23:04:55.891Z,6.60
2017-12-17T23:07:24.179Z,6.17
2017-12-17T23:09:52.450Z,6.50
2017-12-17T23:12:20.746Z,6.60
2017-12-17T23:14:49.046Z,5.40
2017-12-17T23:17:17.317Z,6.47
2017-12-17T23:19:45.598Z,6.70
2017-12-17T23:22:13.875Z,6.10
2017-12-17T23:24:42.151Z,5.97
2017-12-17T23:27:10.412Z,6.03
2017-12-17T23:29:38.687Z,6.10
2017-12-17T23:32:06.948Z,6.20
2017-12-17T23:34:35.244Z,6.53
2017-12-17T23:37:03.525Z,6.83
2017-12-17T23:39:31.780Z,5.90
2017-12-17T23:42:00.352Z,6.70
2017-12-17T23:44:28.615Z,6.33
2017-12-17T23:46:56.902Z,5.53
2017-12-17T23:49:25.228Z,6.73
2017-12-17T23:51:53.487Z,8.00
2017-12-17T23:54:21.948Z,6.93
2017-12-17T23:56:50.208Z,6.30
2017-12-17T23:59:18.557Z,7.15
